Time;durP1;ratioP1;P1;durP2;ratioP2;P2;SDS_P1;SDS_P2;PMS_P1;PMS_P2;Temp;Humidity;BMP_temperature;BMP_pressure;BME280_temperature;BME280_humidity;BME280_pressure;Samples;Min_cycle;Max_cycle;Signal;HPM_P1;HPM_P2
2021/07/24 00:00:26;;;;;;;8.77;6.03;;;;;;;15.02;87.88;100846.16;6240876;22;20119;-86
2021/07/24 00:02:56;;;;;;;9.35;7.13;;;;;;;15.02;88.25;100850.59;6245910;22;20634;-86
2021/07/24 00:05:25;;;;;;;9.40;7.15;;;;;;;15.00;88.57;100847.97;6241645;22;20066;-85
2021/07/24 00:07:54;;;;;;;6.82;6.00;;;;;;;14.98;88.76;100848.91;6245042;22;20023;-87
2021/07/24 00:10:22;;;;;;;8.10;7.30;;;;;;;14.95;88.61;100841.94;6242413;22;20380;-85
2021/07/24 00:12:54;;;;;;;8.63;6.43;;;;;;;14.91;88.83;100837.63;6246003;22;20024;-85
2021/07/24 00:15:23;;;;;;;9.38;7.22;;;;;;;14.87;88.82;100839.50;6244521;22;20030;-86
2021/07/24 00:17:50;;;;;;;6.93;6.22;;;;;;;14.86;89.11;100828.97;6242736;22;20750;-88
2021/07/24 00:20:17;;;;;;;8.55;6.70;;;;;;;14.83;89.22;100835.19;6272473;22;20020;-84
2021/07/24 00:22:44;;;;;;;8.95;6.30;;;;;;;14.79;89.41;100838.81;6297624;22;20016;-85
2021/07/24 00:25:14;;;;;;;14.27;10.40;;;;;;;14.76;89.52;100846.78;6274026;22;20083;-86
2021/07/24 00:27:44;;;;;;;8.63;6.38;;;;;;;14.73;90.04;100833.66;6245093;22;20047;-83
2021/07/24 00:30:12;;;;;;;10.68;7.45;;;;;;;14.69;90.15;100819.72;6271243;22;20351;-86
2021/07/24 00:32:39;;;;;;;8.88;6.75;;;;;;;14.67;90.00;100825.94;6245952;22;20031;-85
2021/07/24 00:35:07;;;;;;;9.32;6.82;;;;;;;14.63;90.13;100833.00;6243117;22;20024;-87
2021/07/24 00:37:34;;;;;;;9.02;7.35;;;;;;;14.60;90.43;100821.66;6270026;22;20079;-86
2021/07/24 00:40:00;;;;;;;7.97;6.82;;;;;;;14.55;90.73;100827.91;6241751;22;20075;-86
2021/07/24 00:42:29;;;;;;;8.15;6.88;;;;;;;14.56;90.81;100820.84;6246132;22;20346;-89
2021/07/24 00:45:04;;;;;;;8.50;6.60;;;;;;;14.53;90.72;100821.78;6245807;22;20103;-83
2021/07/24 00:47:47;;;;;;;8.70;6.88;;;;;;;14.52;90.98;100816.56;6267069;22;20191;-87
2021/07/24 00:50:21;;;;;;;8.33;6.33;;;;;;;14.50;90.95;100811.34;6276637;22;20020;-85
2021/07/24 00:52:48;;;;;;;9.30;7.38;;;;;;;14.49;90.79;100814.00;6249057;22;20537;-86
2021/07/24 00:55:17;;;;;;;9.80;7.50;;;;;;;14.46;91.11;100807.03;6250500;22;20047;-88
2021/07/24 00:57:51;;;;;;;10.95;8.02;;;;;;;14.44;91.28;100814.09;6251795;22;20020;-85
2021/07/24 01:00:19;;;;;;;10.00;6.57;;;;;;;14.41;91.24;100813.31;6277494;22;20024;-88
2021/07/24 01:02:45;;;;;;;9.15;7.70;;;;;;;14.36;91.22;100806.38;6274752;22;20521;-88
2021/07/24 01:05:12;;;;;;;7.78;6.70;;;;;;;14.35;91.75;100798.50;6275856;22;20070;-82
2021/07/24 01:07:45;;;;;;;9.45;7.30;;;;;;;14.31;92.04;100799.47;6250317;22;20114;-83
2021/07/24 01:10:14;;;;;;;9.00;7.68;;;;;;;14.29;91.79;100807.41;6222667;22;20019;-86
2021/07/24 01:12:41;;;;;;;7.68;6.88;;;;;;;14.26;91.93;100804.81;6274543;22;20054;-88
2021/07/24 01:15:09;;;;;;;11.55;8.00;;;;;;;14.23;92.05;100794.38;6246404;22;20055;-85
2021/07/24 01:17:36;;;;;;;9.75;8.25;;;;;;;14.19;91.98;100788.31;6243664;22;20024;-86
2021/07/24 01:20:05;;;;;;;8.27;6.85;;;;;;;14.17;92.15;100790.13;6247201;22;20016;-84
2021/07/24 01:22:31;;;;;;;10.60;8.05;;;;;;;14.17;92.22;100783.97;6268996;22;20026;-86
2021/07/24 01:24:58;;;;;;;8.82;7.20;;;;;;;14.20;92.99;100794.44;6246959;22;20034;-85
2021/07/24 01:27:25;;;;;;;10.68;7.38;;;;;;;14.20;92.47;100790.03;6266065;22;20028;-86
2021/07/24 01:29:52;;;;;;;8.30;6.65;;;;;;;14.16;92.18;100795.44;6249114;22;20019;-84
2021/07/24 01:32:18;;;;;;;9.27;7.43;;;;;;;14.11;92.52;100795.50;6270606;22;20202;-85
2021/07/24 01:34:49;;;;;;;9.10;6.80;;;;;;;14.07;92.60;100799.97;6244914;22;20033;-87
2021/07/24 01:37:16;;;;;;;10.40;7.78;;;;;;;14.05;92.90;100793.00;6269644;22;20028;-87
2021/07/24 01:39:46;;;;;;;8.93;6.93;;;;;;;14.03;92.87;100798.31;6244916;22;20085;-88
2021/07/24 01:42:16;;;;;;;9.77;7.32;;;;;;;14.01;93.11;100791.34;6247724;22;20020;-84
2021/07/24 01:44:43;;;;;;;11.95;8.30;;;;;;;13.99;93.23;100787.88;6244274;22;20027;-85
2021/07/24 01:47:09;;;;;;;10.93;8.30;;;;;;;13.97;93.16;100795.78;6267340;22;20093;-86
2021/07/24 01:52:47;;;;;;;10.68;7.28;;;;;;;13.94;93.43;100787.97;6245593;22;20090;-87
2021/07/24 01:55:35;;;;;;;9.77;7.30;;;;;;;13.90;93.68;100781.91;6269818;22;20291;-84
2021/07/24 01:58:07;;;;;;;8.40;7.13;;;;;;;13.92;93.62;100776.59;6265567;22;20024;-84
2021/07/24 02:00:36;;;;;;;8.85;7.03;;;;;;;13.90;93.19;100775.78;6272600;22;20032;-84
2021/07/24 02:03:09;;;;;;;10.90;8.15;;;;;;;13.90;93.37;100781.03;6243321;22;20023;-85
2021/07/24 02:05:47;;;;;;;8.52;6.43;;;;;;;13.89;93.21;100774.03;6248106;22;20019;-85
2021/07/24 02:08:21;;;;;;;10.93;7.43;;;;;;;13.88;93.32;100767.94;6265790;22;20034;-86
2021/07/24 02:10:52;;;;;;;13.00;8.63;;;;;;;13.85;93.50;100760.06;6271904;22;20031;-83
2021/07/24 02:13:20;;;;;;;11.10;8.15;;;;;;;13.86;93.40;100753.91;6245981;22;20058;-84
2021/07/24 02:15:48;;;;;;;12.27;7.55;;;;;;;13.86;93.56;100750.44;6243048;22;20023;-82
2021/07/24 02:18:20;;;;;;;8.57;6.82;;;;;;;13.83;93.14;100742.59;6246723;22;20030;-85
2021/07/24 02:20:49;;;;;;;12.27;7.28;;;;;;;13.81;93.39;100741.78;6241922;22;20454;-84
2021/07/24 02:23:20;;;;;;;13.02;7.90;;;;;;;13.79;93.61;100741.78;6273984;22;20030;-85
2021/07/24 02:25:47;;;;;;;11.35;7.18;;;;;;;13.77;93.79;100732.22;6268612;22;20082;-82
2021/07/24 02:28:15;;;;;;;10.55;8.10;;;;;;;13.75;93.69;100732.22;6270903;22;20024;-85
2021/07/24 02:30:42;;;;;;;8.43;6.97;;;;;;;13.73;93.85;100731.41;6270690;22;20027;-86
2021/07/24 02:33:09;;;;;;;8.65;6.90;;;;;;;13.69;93.71;100717.44;6267943;22;20343;-85
2021/07/24 02:35:36;;;;;;;12.07;7.70;;;;;;;13.68;93.54;100714.84;6247987;22;20027;-84
2021/07/24 02:38:03;;;;;;;13.82;9.40;;;;;;;13.64;93.90;100714.03;6242050;22;20016;-86
2021/07/24 02:40:30;;;;;;;10.13;7.32;;;;;;;13.64;93.68;100706.16;6247794;22;20016;-83
2021/07/24 02:42:57;;;;;;;8.90;7.25;;;;;;;13.60;94.19;100709.75;6248567;22;20024;-85
2021/07/24 02:45:26;;;;;;;10.10;8.20;;;;;;;13.60;94.16;100711.47;6246952;22;20024;-85
2021/07/24 02:47:53;;;;;;;12.75;8.40;;;;;;;13.56;94.19;100708.06;6246498;22;20062;-83
2021/07/24 02:50:20;;;;;;;13.27;9.95;;;;;;;13.54;94.27;100709.84;6269529;22;20016;-85
2021/07/24 02:52:47;;;;;;;10.90;8.63;;;;;;;13.49;94.14;100709.97;6248617;22;20051;-83
2021/07/24 02:55:13;;;;;;;12.90;7.85;;;;;;;13.47;94.37;100713.53;6245667;22;20091;-83
2021/07/24 02:57:40;;;;;;;9.85;7.72;;;;;;;13.46;94.37;100706.53;6247150;22;20350;-83
2021/07/24 03:00:10;;;;;;;10.20;7.25;;;;;;;13.44;94.46;100703.94;6249474;22;20019;-82
2021/07/24 03:02:37;;;;;;;8.65;6.95;;;;;;;13.44;94.35;100708.31;6239707;23;20028;-84
2021/07/24 03:05:07;;;;;;;8.13;6.68;;;;;;;13.44;94.59;100705.69;6242767;23;20024;-85
2021/07/24 03:07:34;;;;;;;15.35;8.25;;;;;;;13.45;94.67;100695.13;6212748;23;20028;-82
2021/07/24 03:10:01;;;;;;;11.30;8.43;;;;;;;13.43;94.38;100702.19;6242501;23;20043;-84
2021/07/24 03:12:28;;;;;;;10.85;7.10;;;;;;;13.41;94.79;100714.50;6242131;23;20027;-84
2021/07/24 03:15:02;;;;;;;7.97;6.80;;;;;;;13.38;94.28;100720.69;6241348;22;20510;-84
2021/07/24 03:17:30;;;;;;;9.02;7.53;;;;;;;13.34;94.32;100715.50;6215534;23;20028;-85
2021/07/24 03:19:58;;;;;;;9.60;7.30;;;;;;;13.33;94.42;100719.88;6214978;23;20031;-85
2021/07/24 03:22:25;;;;;;;9.07;6.97;;;;;;;13.33;94.39;100705.88;6217059;23;20460;-83
2021/07/24 03:25:00;;;;;;;10.40;7.13;;;;;;;13.34;94.41;100710.25;6238969;23;20019;-85
2021/07/24 03:27:28;;;;;;;10.13;7.10;;;;;;;13.32;94.38;100712.88;6215001;23;20024;-83
2021/07/24 03:29:55;;;;;;;8.75;6.60;;;;;;;13.31;94.50;100716.41;6217890;23;20111;-83
2021/07/24 03:32:22;;;;;;;10.10;7.32;;;;;;;13.31;94.58;100721.69;6213323;23;20032;-84
2021/07/24 03:34:49;;;;;;;10.70;7.20;;;;;;;13.34;94.30;100726.00;6243873;23;20499;-82
2021/07/24 03:37:20;;;;;;;7.95;7.05;;;;;;;13.34;94.39;100729.50;6211065;23;20020;-85
2021/07/24 03:39:47;;;;;;;8.73;6.88;;;;;;;13.32;94.41;100733.06;6243581;22;20023;-87
2021/07/24 03:42:14;;;;;;;9.45;6.80;;;;;;;13.31;94.32;100742.72;6243802;22;20024;-83
2021/07/24 03:44:41;;;;;;;11.30;7.15;;;;;;;13.32;94.26;100739.16;6191223;23;20054;-82
2021/07/24 03:47:08;;;;;;;10.57;7.10;;;;;;;13.34;94.35;100739.16;6214511;23;20032;-83
2021/07/24 03:49:34;;;;;;;7.60;6.78;;;;;;;13.35;94.23;100735.59;6240804;23;20016;-83
2021/07/24 03:52:01;;;;;;;10.95;7.65;;;;;;;13.35;94.01;100730.34;6243740;23;20030;-84
2021/07/24 03:54:31;;;;;;;9.68;6.72;;;;;;;13.35;94.07;100725.09;6238624;23;20024;-83
2021/07/24 03:56:58;;;;;;;10.02;7.53;;;;;;;13.37;94.19;100723.34;6240926;23;20020;-84
2021/07/24 03:59:28;;;;;;;10.07;7.57;;;;;;;13.37;93.78;100728.59;6218287;23;20423;-84
2021/07/24 04:02:01;;;;;;;9.10;7.22;;;;;;;13.36;94.14;100727.75;6213593;23;20032;-82
2021/07/24 04:04:30;;;;;;;7.35;6.47;;;;;;;13.36;93.68;100725.13;6218349;23;20048;-85
2021/07/24 04:06:57;;;;;;;9.80;7.20;;;;;;;13.36;94.10;100725.13;6212260;23;20024;-84
2021/07/24 04:09:24;;;;;;;8.27;7.45;;;;;;;13.38;94.21;100725.09;6242837;23;20255;-82
2021/07/24 04:11:53;;;;;;;9.68;7.55;;;;;;;13.37;94.21;100720.72;6242551;23;20113;-85
2021/07/24 04:14:20;;;;;;;9.15;7.93;;;;;;;13.39;93.96;100726.81;6240917;22;20032;-81
2021/07/24 04:16:49;;;;;;;9.90;7.05;;;;;;;13.41;93.79;100727.66;6214016;23;20046;-82
2021/07/24 04:19:18;;;;;;;9.48;7.07;;;;;;;13.45;94.04;100729.31;6210880;23;20016;-85
2021/07/24 04:21:45;;;;;;;11.32;7.85;;;;;;;13.47;93.54;100718.78;6217074;23;20028;-85
2021/07/24 04:24:12;;;;;;;8.50;6.60;;;;;;;13.49;93.22;100722.22;6239219;23;20495;-85
2021/07/24 04:26:39;;;;;;;10.63;7.15;;;;;;;13.51;93.27;100723.09;6218246;23;20020;-87
2021/07/24 04:29:09;;;;;;;8.90;6.75;;;;;;;13.54;93.38;100721.22;6243593;22;20046;-82
2021/07/24 04:31:38;;;;;;;9.25;7.65;;;;;;;13.59;93.06;100715.03;6258842;22;20023;-85
2021/07/24 04:34:07;;;;;;;11.18;7.53;;;;;;;13.64;93.04;100721.06;6252325;22;20119;-83
2021/07/24 04:36:42;;;;;;;8.20;7.20;;;;;;;13.68;92.67;100728.00;6275200;22;20020;-86
2021/07/24 04:39:10;;;;;;;10.93;7.75;;;;;;;13.72;92.23;100724.41;6278095;22;20020;-83
2021/07/24 04:41:37;;;;;;;8.43;7.15;;;;;;;13.79;92.14;100727.75;6248034;22;20034;-85
2021/07/24 04:44:10;;;;;;;10.65;7.05;;;;;;;13.84;91.94;100729.38;6252304;22;20027;-84
2021/07/24 04:46:37;;;;;;;9.70;7.13;;;;;;;13.89;91.62;100722.25;6232171;23;20032;-84
2021/07/24 04:49:04;;;;;;;10.55;7.07;;;;;;;13.98;91.24;100721.22;6244308;22;20031;-85
2021/07/24 04:51:31;;;;;;;9.70;7.10;;;;;;;14.04;91.14;100715.81;6221421;23;20012;-84
2021/07/24 04:53:59;;;;;;;8.88;6.47;;;;;;;14.10;90.53;100714.81;6217046;23;20023;-85
2021/07/24 04:56:26;;;;;;;7.88;6.10;;;;;;;14.14;90.27;100703.28;6219607;23;20029;-83
2021/07/24 04:58:53;;;;;;;9.73;6.78;;;;;;;14.20;90.05;100703.16;6240934;23;20035;-84
2021/07/24 05:01:20;;;;;;;9.70;7.93;;;;;;;14.26;89.59;100712.66;6228251;22;20165;-81
2021/07/24 05:03:48;;;;;;;14.20;7.57;;;;;;;14.33;89.08;100714.28;6247204;22;20043;-86
2021/07/24 05:06:15;;;;;;;9.73;7.65;;;;;;;14.37;88.64;100713.28;6268558;22;20055;-85
2021/07/24 05:08:45;;;;;;;7.20;6.05;;;;;;;14.41;88.21;100715.88;6246241;22;20034;-87
2021/07/24 05:11:14;;;;;;;8.95;7.07;;;;;;;14.46;88.39;100716.63;6242616;22;20355;-86
2021/07/24 05:13:41;;;;;;;7.95;6.68;;;;;;;14.51;88.10;100723.50;6246862;22;20023;-81
2021/07/24 05:16:10;;;;;;;10.32;7.28;;;;;;;14.55;87.63;100722.53;6246911;22;20536;-81
2021/07/24 05:18:37;;;;;;;9.43;6.65;;;;;;;14.60;87.51;100716.28;6270208;22;20024;-83
2021/07/24 05:21:04;;;;;;;7.90;6.93;;;;;;;14.68;87.28;100714.38;6273363;22;20024;-83
2021/07/24 05:23:33;;;;;;;8.45;6.10;;;;;;;14.75;86.17;100718.56;6243128;22;20027;-84
2021/07/24 05:26:00;;;;;;;19.80;6.63;;;;;;;14.78;85.42;100713.19;6244807;22;20628;-84
2021/07/24 05:28:27;;;;;;;9.68;6.55;;;;;;;14.82;85.16;100711.38;6270995;22;20027;-86
2021/07/24 05:30:56;;;;;;;11.23;7.07;;;;;;;14.83;84.80;100713.94;6267915;22;20050;-85
2021/07/24 05:33:23;;;;;;;8.70;5.22;;;;;;;14.86;84.66;100713.91;6272895;22;20023;-84
2021/07/24 05:35:50;;;;;;;8.02;5.32;;;;;;;14.92;84.64;100714.66;6244444;22;20028;-84
2021/07/24 05:38:17;;;;;;;8.57;5.53;;;;;;;14.98;84.37;100717.97;6246327;22;20027;-85
2021/07/24 05:40:44;;;;;;;8.30;6.20;;;;;;;15.05;84.12;100710.78;6244923;22;20077;-85
2021/07/24 05:43:10;;;;;;;8.35;6.20;;;;;;;15.13;83.48;100706.16;6244232;22;20031;-84
2021/07/24 05:45:37;;;;;;;8.93;6.43;;;;;;;15.20;83.11;100707.72;6269196;22;20069;-88
2021/07/24 05:48:04;;;;;;;7.95;5.85;;;;;;;15.26;82.69;100704.03;6243406;22;20039;-87
2021/07/24 05:50:33;;;;;;;6.78;5.50;;;;;;;15.33;82.66;100697.69;6249420;22;20026;-87
2021/07/24 05:53:00;;;;;;;9.13;5.63;;;;;;;15.44;82.21;100694.75;6245592;22;20028;-84
2021/07/24 05:55:29;;;;;;;10.20;6.05;;;;;;;15.53;81.93;100691.00;6248872;22;20030;-84
2021/07/24 05:57:56;;;;;;;8.80;6.03;;;;;;;15.64;81.16;100682.75;6245370;22;20051;-87
2021/07/24 06:00:28;;;;;;;7.65;5.97;;;;;;;15.72;80.88;100675.47;6227354;22;20023;-84
2021/07/24 06:02:55;;;;;;;8.05;5.70;;;;;;;15.80;80.75;100667.31;6249664;22;20024;-87
2021/07/24 06:05:22;;;;;;;11.82;8.20;;;;;;;15.87;80.13;100663.63;6238918;22;20115;-85
2021/07/24 06:07:49;;;;;;;7.55;5.55;;;;;;;15.94;79.74;100664.28;6243830;22;20098;-88
2021/07/24 06:10:16;;;;;;;6.10;5.47;;;;;;;16.01;79.47;100658.78;6240347;22;20497;-86
2021/07/24 06:12:47;;;;;;;9.40;5.50;;;;;;;16.09;79.15;100655.00;6245190;22;20034;-84
2021/07/24 06:15:14;;;;;;;11.93;6.05;;;;;;;16.18;78.78;100652.94;6268133;22;20059;-87
2021/07/24 06:17:41;;;;;;;9.13;5.45;;;;;;;16.29;78.59;100638.53;6243380;22;20374;-87
2021/07/24 06:20:08;;;;;;;6.03;4.55;;;;;;;16.39;78.11;100629.38;6270384;22;20019;-85
2021/07/24 06:22:36;;;;;;;8.63;6.00;;;;;;;16.47;77.91;100627.34;6240628;22;20023;-81
2021/07/24 06:25:03;;;;;;;6.68;5.20;;;;;;;16.52;77.54;100614.84;6244902;22;20019;-85
2021/07/24 06:27:30;;;;;;;11.93;5.85;;;;;;;16.59;77.35;100602.28;6245932;22;20039;-85
2021/07/24 06:29:57;;;;;;;8.90;5.28;;;;;;;16.64;77.29;100602.97;6242063;22;20020;-85
2021/07/24 06:32:24;;;;;;;9.80;5.25;;;;;;;16.70;77.16;100605.41;6269595;22;20037;-84
2021/07/24 06:34:51;;;;;;;7.50;6.50;;;;;;;16.80;77.04;100599.78;6240713;22;20062;-86
2021/07/24 06:37:20;;;;;;;8.70;5.53;;;;;;;16.87;76.25;100610.09;6269492;22;20061;-85
2021/07/24 06:39:48;;;;;;;8.48;5.88;;;;;;;16.96;76.01;100606.31;6266384;22;20024;-86
2021/07/24 06:42:14;;;;;;;9.65;6.35;;;;;;;17.03;75.90;100605.13;6246995;22;20027;-87
2021/07/24 06:44:41;;;;;;;12.07;7.43;;;;;;;17.13;75.36;100608.31;6246333;22;20035;-87
2021/07/24 06:47:08;;;;;;;12.05;7.20;;;;;;;17.20;74.89;100609.81;6268029;22;20015;-86
2021/07/24 06:49:35;;;;;;;9.20;6.88;;;;;;;17.25;74.58;100609.66;6247581;22;20085;-84
2021/07/24 06:52:05;;;;;;;8.32;5.97;;;;;;;17.31;74.27;100601.47;6243210;22;20008;-85
2021/07/24 06:54:31;;;;;;;9.00;6.10;;;;;;;17.42;73.92;100597.56;6247685;22;20115;-87
2021/07/24 06:56:59;;;;;;;8.23;6.85;;;;;;;17.51;73.57;100597.22;6272741;22;20090;-83
2021/07/24 06:59:26;;;;;;;7.30;5.70;;;;;;;17.61;72.84;100588.00;6268857;22;20339;-84
2021/07/24 07:01:53;;;;;;;6.10;4.65;;;;;;;17.68;72.32;100592.09;6269993;22;20023;-86
2021/07/24 07:04:19;;;;;;;6.72;5.15;;;;;;;17.75;71.92;100592.72;6265255;22;20059;-87
2021/07/24 07:06:48;;;;;;;12.50;5.18;;;;;;;17.84;71.43;100595.00;6244568;22;20031;-85
2021/07/24 07:09:18;;;;;;;5.32;4.80;;;;;;;17.93;71.10;100585.00;6243343;22;20089;-88
2021/07/24 07:11:46;;;;;;;8.32;4.97;;;;;;;18.03;70.35;100586.34;6218590;22;20023;-88
2021/07/24 07:14:15;;;;;;;6.57;5.43;;;;;;;18.15;69.82;100587.63;6271371;22;20023;-83
2021/07/24 07:16:42;;;;;;;7.05;4.78;;;;;;;18.26;69.63;100592.47;6237756;22;20427;-85
2021/07/24 07:19:09;;;;;;;7.07;4.57;;;;;;;18.45;69.14;100588.13;6243468;22;20031;-87
2021/07/24 07:21:35;;;;;;;11.77;5.15;;;;;;;18.79;68.35;100580.47;6265524;22;20027;-85
2021/07/24 07:24:02;;;;;;;5.63;4.57;;;;;;;19.26;65.92;100577.47;6243361;22;20020;-89
2021/07/24 07:26:29;;;;;;;6.82;4.25;;;;;;;19.71;65.24;100571.84;6239641;22;20023;-86
2021/07/24 07:28:58;;;;;;;11.95;4.57;;;;;;;20.29;64.19;100562.81;6265476;22;20098;-87
2021/07/24 07:31:25;;;;;;;7.10;4.53;;;;;;;20.93;62.08;100571.91;6266317;22;20073;-89
2021/07/24 07:33:51;;;;;;;5.53;3.45;;;;;;;21.49;60.24;100563.56;6263025;22;20357;-85
2021/07/24 07:36:18;;;;;;;7.38;4.20;;;;;;;22.05;58.10;100561.28;6239791;22;20093;-84
2021/07/24 07:38:45;;;;;;;5.40;4.90;;;;;;;22.53;56.78;100563.81;6262304;22;20051;-87
2021/07/24 07:41:12;;;;;;;4.70;3.88;;;;;;;22.95;54.39;100562.09;6239555;22;20023;-86
2021/07/24 07:43:39;;;;;;;6.20;3.67;;;;;;;23.31;53.83;100564.38;6266140;22;20029;-86
2021/07/24 07:46:06;;;;;;;7.55;3.97;;;;;;;23.75;53.07;100561.53;6261051;22;20032;-86
2021/07/24 07:48:35;;;;;;;4.28;3.40;;;;;;;24.04;49.80;100561.44;6241773;22;20401;-83
2021/07/24 07:51:04;;;;;;;6.10;4.00;;;;;;;24.28;50.02;100566.06;6263061;22;20418;-84
2021/07/24 07:53:34;;;;;;;5.53;4.00;;;;;;;24.56;49.48;100565.03;6240775;22;20398;-85
2021/07/24 07:56:02;;;;;;;5.90;3.70;;;;;;;24.83;48.38;100568.59;6239571;22;20094;-86
2021/07/24 07:58:32;;;;;;;6.22;3.50;;;;;;;25.14;48.29;100575.28;6237429;22;20528;-87
2021/07/24 08:00:59;;;;;;;4.85;3.60;;;;;;;25.53;46.75;100575.25;6265647;22;20055;-87
2021/07/24 08:03:29;;;;;;;4.65;3.50;;;;;;;25.92;45.53;100573.25;6235682;22;20023;-84
2021/07/24 08:06:01;;;;;;;5.75;2.78;;;;;;;26.13;44.87;100572.63;6246278;22;20062;-84
2021/07/24 08:08:27;;;;;;;5.03;3.67;;;;;;;26.27;42.86;100569.75;6242504;22;20024;-86
2021/07/24 08:10:54;;;;;;;3.63;3.33;;;;;;;26.27;43.27;100563.50;6269098;22;20312;-90
2021/07/24 08:13:21;;;;;;;5.22;3.28;;;;;;;26.03;42.75;100581.31;6273677;22;20178;-84
2021/07/24 08:15:49;;;;;;;5.28;3.70;;;;;;;25.89;43.66;100571.66;6243461;22;20054;-86
2021/07/24 08:18:16;;;;;;;3.63;3.33;;;;;;;26.43;42.85;100558.69;6244147;22;20023;-86
2021/07/24 08:20:44;;;;;;;4.57;3.65;;;;;;;27.07;41.27;100551.91;6239575;22;20015;-84
2021/07/24 08:23:14;;;;;;;3.50;3.17;;;;;;;27.52;40.07;100551.88;6244430;22;20081;-87
2021/07/24 08:25:45;;;;;;;4.15;3.40;;;;;;;27.88;38.63;100546.25;6265608;22;20040;-86
2021/07/24 08:28:13;;;;;;;4.05;3.10;;;;;;;27.80;38.96;100543.34;6269225;22;20043;-85
2021/07/24 08:30:39;;;;;;;3.70;3.40;;;;;;;27.94;38.83;100537.66;6241938;22;20024;-86
2021/07/24 08:33:06;;;;;;;6.32;4.43;;;;;;;28.25;38.20;100545.84;6238903;22;20028;-86
2021/07/24 08:35:33;;;;;;;4.35;3.70;;;;;;;28.68;37.28;100539.47;6269875;22;20016;-88
2021/07/24 08:38:02;;;;;;;6.28;4.18;;;;;;;28.54;37.20;100535.25;6240462;22;20033;-86
2021/07/24 08:40:30;;;;;;;3.78;2.90;;;;;;;28.65;37.35;100533.47;6268236;22;20019;-84
2021/07/24 08:43:04;;;;;;;3.67;3.22;;;;;;;28.96;35.71;100528.94;6294909;22;20027;-85
2021/07/24 08:45:32;;;;;;;3.20;2.92;;;;;;;29.31;36.17;100529.50;6240875;22;20292;-88
2021/07/24 08:48:01;;;;;;;3.50;3.20;;;;;;;29.75;34.88;100521.88;6270915;22;20511;-87
2021/07/24 08:50:28;;;;;;;4.32;3.90;;;;;;;29.61;34.87;100519.63;6217237;22;20034;-85
2021/07/24 08:52:57;;;;;;;3.30;3.00;;;;;;;30.05;34.62;100516.50;6242961;22;20023;-84
2021/07/24 08:55:24;;;;;;;3.97;3.63;;;;;;;30.12;33.34;100517.63;6266764;22;20024;-87
2021/07/24 08:57:52;;;;;;;3.95;3.60;;;;;;;30.13;33.94;100516.59;6246458;22;20046;-87
2021/07/24 09:00:21;;;;;;;4.15;3.72;;;;;;;30.42;33.46;100513.84;6244641;22;20118;-86
2021/07/24 09:02:49;;;;;;;3.67;3.20;;;;;;;30.33;33.85;100504.78;6242354;22;20023;-87
2021/07/24 09:05:18;;;;;;;7.78;4.28;;;;;;;30.73;32.79;100516.34;6271049;22;20039;-84
2021/07/24 09:07:52;;;;;;;4.82;4.40;;;;;;;30.98;32.09;100505.84;6272471;22;20034;-88
2021/07/24 09:10:20;;;;;;;4.78;4.32;;;;;;;31.35;31.67;100502.22;6246937;22;20074;-87
2021/07/24 09:12:54;;;;;;;3.65;3.35;;;;;;;31.80;31.37;100503.19;6269370;22;20024;-85
2021/07/24 09:15:21;;;;;;;5.00;4.05;;;;;;;32.29;30.89;100508.13;6253644;22;20034;-85
2021/07/24 09:17:52;;;;;;;5.03;4.13;;;;;;;32.43;29.69;100499.41;6276855;22;20052;-88
2021/07/24 09:20:31;;;;;;;5.15;4.55;;;;;;;32.78;29.77;100488.63;6254715;22;20046;-86
2021/07/24 09:23:47;;;;;;;5.20;4.00;;;;;;;33.27;29.60;100491.50;6256870;22;20043;-87
2021/07/24 09:26:36;;;;;;;;;;;;;;;33.30;29.08;100491.16;6271671;22;20020;-86
2021/07/24 09:29:17;;;;;;;5.22;4.15;;;;;;;33.45;28.45;100482.38;6272991;22;20309;-88
2021/07/24 09:31:51;;;;;;;4.82;4.07;;;;;;;33.73;29.09;100484.78;6274937;22;20028;-88
2021/07/24 09:34:20;;;;;;;4.75;4.35;;;;;;;33.82;28.23;100485.63;6278623;22;20024;-86
2021/07/24 09:36:48;;;;;;;5.43;4.40;;;;;;;33.54;28.90;100477.81;6249411;22;20320;-88
2021/07/24 09:39:21;;;;;;;5.22;4.78;;;;;;;33.72;28.56;100478.47;6278346;22;20077;-84
2021/07/24 09:42:12;;;;;;;6.30;5.70;;;;;;;33.63;27.98;100466.78;6252021;22;20103;-87
2021/07/24 09:44:43;;;;;;;5.55;5.03;;;;;;;33.53;28.83;100460.66;6272267;22;20019;-86
2021/07/24 09:47:12;;;;;;;4.88;4.22;;;;;;;33.78;28.60;100455.22;6275903;22;20032;-88
2021/07/24 09:52:29;;;;;;;5.80;5.18;;;;;;;33.95;28.36;100453.41;6239035;22;20122;-87
2021/07/24 09:55:29;;;;;;;5.72;5.22;;;;;;;33.56;28.07;100454.91;6255936;22;20031;-82
2021/07/24 09:57:59;;;;;;;6.03;5.53;;;;;;;34.08;27.88;100448.28;6233127;22;20049;-85
2021/07/24 10:00:33;;;;;;;6.65;5.63;;;;;;;34.38;27.43;100439.56;6267219;22;20054;-89
2021/07/24 10:03:08;;;;;;;5.88;5.20;;;;;;;34.11;27.77;100441.66;6247553;22;20023;-87
2021/07/24 10:05:43;;;;;;;5.75;5.25;;;;;;;34.01;28.24;100439.13;6246557;22;20019;-84
2021/07/24 10:08:16;;;;;;;8.10;6.40;;;;;;;33.54;28.68;100435.22;6297475;22;20465;-87
2021/07/24 10:10:45;;;;;;;6.25;4.95;;;;;;;33.37;29.64;100438.97;6275109;22;20023;-88
2021/07/24 10:13:16;;;;;;;7.35;5.00;;;;;;;33.67;28.84;100440.16;6245049;22;20085;-89
2021/07/24 10:15:46;;;;;;;5.90;5.40;;;;;;;34.22;28.26;100429.56;6272164;22;20058;-85
2021/07/24 10:18:16;;;;;;;5.88;5.40;;;;;;;34.67;27.83;100432.63;6247754;22;20086;-85
2021/07/24 10:20:51;;;;;;;6.35;5.55;;;;;;;35.45;26.45;100428.13;6249424;22;20035;-86
2021/07/24 10:23:21;;;;;;;7.20;5.72;;;;;;;35.79;26.14;100432.25;6249756;22;20031;-84
2021/07/24 10:26:18;;;;;;;7.55;6.85;;;;;;;36.14;25.68;100423.56;6247359;22;20489;-87
2021/07/24 10:29:00;;;;;;;5.70;5.20;;;;;;;36.98;25.25;100422.38;6250199;22;20020;-89
2021/07/24 10:31:53;;;;;;;8.80;5.57;;;;;;;37.15;24.19;100420.25;6245581;22;20034;-86
2021/07/24 10:34:26;;;;;;;6.30;5.78;;;;;;;37.64;23.61;100414.00;6252068;22;20086;-89
2021/07/24 10:36:54;;;;;;;6.53;5.93;;;;;;;38.33;23.20;100412.41;6244137;22;20542;-84
2021/07/24 10:39:24;;;;;;;6.47;5.88;;;;;;;38.74;23.11;100405.22;6250499;22;20024;-87
2021/07/24 10:42:13;;;;;;;7.18;6.22;;;;;;;38.71;22.58;100402.88;6251481;22;20478;-85
2021/07/24 10:44:46;;;;;;;6.72;6.10;;;;;;;37.68;23.60;100401.63;6277699;22;20019;-87
2021/07/24 10:47:16;;;;;;;9.55;7.03;;;;;;;36.92;24.47;100402.16;6271601;22;20426;-86
2021/07/24 10:49:45;;;;;;;7.18;6.47;;;;;;;37.16;24.47;100403.69;6274999;22;20031;-90
2021/07/24 10:52:22;;;;;;;10.40;6.70;;;;;;;36.45;24.82;100409.75;6274521;22;20514;-84
2021/07/24 10:54:56;;;;;;;6.05;5.65;;;;;;;37.28;24.14;100398.53;6272705;22;20082;-85
2021/07/24 10:57:55;;;;;;;6.57;6.03;;;;;;;38.63;22.50;100397.56;6279466;22;20024;-86
2021/07/24 11:00:24;;;;;;;6.63;6.00;;;;;;;39.09;22.08;100398.75;6272277;22;20034;-87
2021/07/24 11:02:55;;;;;;;7.10;6.50;;;;;;;38.01;23.49;100392.00;6281035;22;20023;-86
2021/07/24 11:05:27;;;;;;;7.25;6.47;;;;;;;37.21;24.36;100395.75;6247179;22;20023;-87
2021/07/24 11:07:58;;;;;;;6.88;6.28;;;;;;;37.51;23.68;100390.16;6254391;22;20030;-88
2021/07/24 11:10:27;;;;;;;8.57;6.28;;;;;;;37.57;23.55;100383.91;6281494;22;20030;-90
2021/07/24 11:12:54;;;;;;;7.45;6.80;;;;;;;37.39;23.61;100399.91;6251474;22;20019;-87
2021/07/24 11:15:42;;;;;;;7.75;6.53;;;;;;;37.52;23.80;100382.81;6252352;22;20030;-85
2021/07/24 11:18:26;;;;;;;7.50;6.78;;;;;;;38.39;22.50;100373.28;6268246;22;20020;-87
2021/07/24 11:20:59;;;;;;;8.75;6.85;;;;;;;39.16;22.18;100367.59;6253232;22;20047;-87
2021/07/24 11:23:26;;;;;;;8.23;6.30;;;;;;;39.23;22.13;100369.53;6250164;22;20097;-87
2021/07/24 11:26:03;;;;;;;7.95;7.35;;;;;;;39.75;20.82;100356.03;6278243;22;20019;-85
2021/07/24 11:28:32;;;;;;;7.70;6.93;;;;;;;39.70;20.88;100353.97;6274443;22;20019;-86
2021/07/24 11:31:05;;;;;;;7.65;6.95;;;;;;;39.44;20.98;100354.78;6278197;22;20061;-90
2021/07/24 11:33:33;;;;;;;8.40;7.60;;;;;;;39.66;21.20;100353.53;6248704;22;20363;-85
2021/07/24 11:36:07;;;;;;;8.82;7.38;;;;;;;40.24;20.43;100353.81;6270063;22;20076;-86
2021/07/24 11:38:37;;;;;;;8.77;6.88;;;;;;;40.32;20.51;100337.94;6249604;22;20074;-88
2021/07/24 11:41:11;;;;;;;8.05;7.28;;;;;;;40.37;20.08;100345.53;6246729;22;20407;-86